createdAt,value
2023-03-19T00:00:52.384Z,0.00
2023-03-19T00:01:52.400Z,0.00
2023-03-19T00:02:52.523Z,0.00
2023-03-19T00:03:52.461Z,0.00
2023-03-19T00:04:52.361Z,0.00
2023-03-19T00:05:52.359Z,0.00
2023-03-19T00:06:52.402Z,0.00
2023-03-19T00:07:52.329Z,0.00
2023-03-19T00:08:52.344Z,0.00
2023-03-19T00:09:52.285Z,0.00
2023-03-19T00:10:52.289Z,0.00
2023-03-19T00:11:52.268Z,0.00
2023-03-19T00:12:52.263Z,0.00
2023-03-19T00:13:52.277Z,0.00
2023-03-19T00:14:52.235Z,0.00
2023-03-19T00:15:52.249Z,0.00
2023-03-19T00:16:52.218Z,0.00
2023-03-19T00:17:52.202Z,0.00
2023-03-19T00:18:52.226Z,0.00
2023-03-19T00:19:52.180Z,0.00
2023-03-19T00:20:52.167Z,0.00
2023-03-19T00:21:52.149Z,0.00
2023-03-19T00:22:52.157Z,0.00
2023-03-19T00:23:52.141Z,0.00
2023-03-19T00:24:53.016Z,0.00
2023-03-19T00:25:52.113Z,0.00
2023-03-19T00:26:52.091Z,0.00
2023-03-19T00:27:52.090Z,0.00
2023-03-19T00:28:52.120Z,0.00
2023-03-19T00:29:52.065Z,0.00
2023-03-19T00:30:52.059Z,0.00
2023-03-19T00:31:52.031Z,0.00
2023-03-19T00:32:52.051Z,0.00
2023-03-19T00:33:52.016Z,0.00
2023-03-19T00:34:52.031Z,0.00
2023-03-19T00:35:52.045Z,0.00
2023-03-19T00:36:52.010Z,0.00
2023-03-19T00:37:51.979Z,0.00
2023-03-19T00:38:51.973Z,0.00
2023-03-19T00:39:51.950Z,0.00
2023-03-19T00:40:51.940Z,0.00
2023-03-19T00:41:51.996Z,0.00
2023-03-19T00:42:51.916Z,0.00
2023-03-19T00:43:51.913Z,0.00
2023-03-19T00:44:51.907Z,0.00
2023-03-19T00:45:51.900Z,0.00
2023-03-19T00:46:51.892Z,0.00
2023-03-19T00:47:51.878Z,0.00
2023-03-19T00:48:51.856Z,0.00
2023-03-19T00:49:51.856Z,0.00
2023-03-19T00:50:51.840Z,0.00
2023-03-19T00:51:51.814Z,0.00
2023-03-19T00:52:51.824Z,0.00
2023-03-19T00:53:51.796Z,0.00
2023-03-19T00:54:51.799Z,0.00
2023-03-19T00:55:51.778Z,0.00
2023-03-19T00:56:51.773Z,0.00
2023-03-19T00:57:51.769Z,0.00
2023-03-19T00:58:51.769Z,0.00
2023-03-19T00:59:51.724Z,0.00
2023-03-19T01:00:51.774Z,0.00
2023-03-19T01:01:51.703Z,0.00
2023-03-19T01:02:51.708Z,0.00
2023-03-19T01:03:52.544Z,0.00
2023-03-19T01:04:51.672Z,0.00
2023-03-19T01:05:59.117Z,0.00
2023-03-19T01:06:51.702Z,0.00
2023-03-19T01:07:51.653Z,0.00
2023-03-19T01:08:51.632Z,0.00
2023-03-19T01:09:51.613Z,0.00
2023-03-19T01:10:51.615Z,0.00
2023-03-19T01:11:51.626Z,0.00
2023-03-19T01:12:51.588Z,0.00
2023-03-19T01:13:51.583Z,0.00
2023-03-19T01:14:51.599Z,0.00
2023-03-19T01:15:51.540Z,0.00
2023-03-19T01:16:51.555Z,0.00
2023-03-19T01:17:51.527Z,0.00
2023-03-19T01:18:51.536Z,0.00
2023-03-19T01:19:51.514Z,0.00
2023-03-19T01:20:51.479Z,0.00
2023-03-19T01:21:51.490Z,0.00
2023-03-19T01:22:51.485Z,0.00
2023-03-19T01:23:51.450Z,0.00
2023-03-19T01:24:51.464Z,0.00
2023-03-19T01:25:51.430Z,0.00
2023-03-19T01:26:51.413Z,0.00
2023-03-19T01:27:51.425Z,0.00
2023-03-19T01:28:51.402Z,0.00
2023-03-19T01:29:51.407Z,0.00
2023-03-19T01:30:51.434Z,0.00
2023-03-19T01:31:51.405Z,0.00
2023-03-19T01:32:51.399Z,0.00
2023-03-19T01:33:51.335Z,0.00
2023-03-19T01:34:51.325Z,0.00
2023-03-19T01:35:51.339Z,0.00
2023-03-19T01:36:52.823Z,0.00
2023-03-19T01:37:52.270Z,0.00
2023-03-19T01:38:51.283Z,0.00
2023-03-19T01:39:51.293Z,0.00
2023-03-19T01:40:51.259Z,0.00
2023-03-19T01:41:51.283Z,0.00
2023-03-19T01:42:51.262Z,0.00
2023-03-19T01:43:51.231Z,0.00
2023-03-19T01:44:51.216Z,0.00
2023-03-19T01:45:51.514Z,0.00
2023-03-19T01:46:51.254Z,0.00
2023-03-19T01:47:51.184Z,0.00
2023-03-19T01:48:51.204Z,0.00
2023-03-19T01:49:51.164Z,0.00
2023-03-19T01:50:51.156Z,0.00
2023-03-19T01:51:51.169Z,0.00
2023-03-19T01:52:51.128Z,0.00
2023-03-19T01:53:51.124Z,0.00
2023-03-19T01:54:51.138Z,0.00
2023-03-19T01:55:51.128Z,0.00
2023-03-19T01:56:51.086Z,0.00
2023-03-19T01:57:51.106Z,0.00
2023-03-19T01:58:51.056Z,0.00
2023-03-19T01:59:51.044Z,0.00
2023-03-19T02:00:51.041Z,0.00
2023-03-19T02:01:51.097Z,0.00
2023-03-19T02:02:51.027Z,0.00
2023-03-19T02:03:51.040Z,0.00
2023-03-19T02:04:51.051Z,0.00
2023-03-19T02:05:50.988Z,0.00
2023-03-19T02:06:51.002Z,0.00
2023-03-19T02:07:50.997Z,0.00
2023-03-19T02:08:50.962Z,0.00
2023-03-19T02:09:50.933Z,0.00
2023-03-19T02:10:50.918Z,0.00
2023-03-19T02:11:50.906Z,0.00
2023-03-19T02:12:50.937Z,0.00
2023-03-19T02:13:50.898Z,0.00
2023-03-19T02:14:50.878Z,0.00
2023-03-19T02:15:50.948Z,0.00
2023-03-19T02:16:50.902Z,0.00
2023-03-19T02:17:52.353Z,0.00
2023-03-19T02:18:50.833Z,0.00
2023-03-19T02:19:50.822Z,0.00
2023-03-19T02:20:50.817Z,0.00
2023-03-19T02:21:50.841Z,0.00
2023-03-19T02:22:52.259Z,0.00
2023-03-19T02:23:50.772Z,0.00
2023-03-19T02:24:50.794Z,0.00
2023-03-19T02:25:50.746Z,0.00
2023-03-19T02:26:50.785Z,0.00
2023-03-19T02:27:50.754Z,0.00
2023-03-19T02:28:50.714Z,0.00
2023-03-19T02:29:50.711Z,0.00
2023-03-19T02:30:50.755Z,0.00
2023-03-19T02:31:50.707Z,0.00
2023-03-19T02:32:50.720Z,0.00
2023-03-19T02:33:50.663Z,0.00
2023-03-19T02:34:50.652Z,0.00
2023-03-19T02:35:50.685Z,0.00
2023-03-19T02:36:50.668Z,0.00
2023-03-19T02:37:50.620Z,0.00
2023-03-19T02:38:50.603Z,0.00
2023-03-19T02:39:50.606Z,0.00
2023-03-19T02:40:50.571Z,0.00
2023-03-19T02:41:50.569Z,0.00
2023-03-19T02:42:50.594Z,0.00
2023-03-19T02:43:50.562Z,0.00
2023-03-19T02:44:50.540Z,0.00
2023-03-19T02:45:50.530Z,0.00
2023-03-19T02:46:50.566Z,0.00
2023-03-19T02:47:50.545Z,0.00
2023-03-19T02:48:50.501Z,0.00
2023-03-19T02:49:50.495Z,0.00
2023-03-19T02:50:50.477Z,0.00
2023-03-19T02:51:50.485Z,0.00
2023-03-19T02:52:50.451Z,0.00
2023-03-19T02:53:52.014Z,0.00
2023-03-19T02:54:50.455Z,0.00
2023-03-19T02:55:50.410Z,0.00
2023-03-19T02:56:50.407Z,0.00
2023-03-19T02:57:50.412Z,0.00
2023-03-19T02:58:50.398Z,0.00
2023-03-19T02:59:50.379Z,0.00
2023-03-19T03:00:50.405Z,0.00
2023-03-19T03:01:50.434Z,0.00
2023-03-19T03:02:50.341Z,0.00
2023-03-19T03:03:50.346Z,0.00
2023-03-19T03:04:50.317Z,0.00
2023-03-19T03:05:50.312Z,0.00
2023-03-19T03:06:51.748Z,0.00
2023-03-19T03:07:50.279Z,0.00
2023-03-19T03:08:50.678Z,0.00
2023-03-19T03:09:50.247Z,0.00
2023-03-19T03:10:50.236Z,0.00
2023-03-19T03:11:50.236Z,0.00
2023-03-19T03:12:51.187Z,0.00
2023-03-19T03:13:50.231Z,0.00
2023-03-19T03:14:50.219Z,0.00
2023-03-19T03:15:50.181Z,0.00
2023-03-19T03:16:50.175Z,0.00
2023-03-19T03:17:50.199Z,0.00
2023-03-19T03:18:50.247Z,0.00
2023-03-19T03:19:50.169Z,0.00
2023-03-19T03:20:50.135Z,0.00
2023-03-19T03:21:50.157Z,0.00
2023-03-19T03:22:50.131Z,0.00
2023-03-19T03:23:50.113Z,0.00
2023-03-19T03:24:50.085Z,0.00
2023-03-19T03:25:50.088Z,0.00
2023-03-19T03:26:50.067Z,0.00
2023-03-19T03:27:50.107Z,0.00
2023-03-19T03:28:51.024Z,0.00
2023-03-19T03:29:50.032Z,0.00
2023-03-19T03:30:50.027Z,0.00
2023-03-19T03:31:50.014Z,0.00
2023-03-19T03:32:50.055Z,0.00
2023-03-19T03:33:49.994Z,0.00
2023-03-19T03:34:51.489Z,0.00
2023-03-19T03:35:50.017Z,0.00
2023-03-19T03:36:49.970Z,0.00
2023-03-19T03:37:49.963Z,0.00
2023-03-19T03:38:49.989Z,0.00
2023-03-19T03:39:49.927Z,0.00
2023-03-19T03:40:50.101Z,0.00
2023-03-19T03:41:49.887Z,0.00
2023-03-19T03:42:49.877Z,0.00
2023-03-19T03:43:49.874Z,0.00
2023-03-19T03:44:49.864Z,0.00
2023-03-19T03:45:49.926Z,0.00
2023-03-19T03:46:49.887Z,0.00
2023-03-19T03:47:49.843Z,0.00
2023-03-19T03:48:49.830Z,0.00
2023-03-19T03:49:49.803Z,0.00
2023-03-19T03:50:49.805Z,0.00
2023-03-19T03:51:49.782Z,0.00
2023-03-19T03:52:49.793Z,0.00
2023-03-19T03:53:49.798Z,0.00
2023-03-19T03:54:49.760Z,0.00
2023-03-19T03:55:49.741Z,0.00
2023-03-19T03:56:49.738Z,0.00
2023-03-19T03:57:49.732Z,0.00
2023-03-19T03:58:49.748Z,0.00
2023-03-19T03:59:49.692Z,0.00
2023-03-19T04:00:49.723Z,0.00
2023-03-19T04:01:49.773Z,0.00
2023-03-19T04:02:49.711Z,0.00
2023-03-19T04:03:49.682Z,0.00
2023-03-19T04:04:49.654Z,0.00
2023-03-19T04:05:51.133Z,0.00
2023-03-19T04:06:50.575Z,0.00
2023-03-19T04:07:50.570Z,0.00
2023-03-19T04:08:49.608Z,0.00
2023-03-19T04:09:49.617Z,0.00
2023-03-19T04:10:49.606Z,0.00
2023-03-19T04:11:51.485Z,0.00
2023-03-19T04:12:49.553Z,0.00
2023-03-19T04:13:49.552Z,0.00
2023-03-19T04:14:49.575Z,0.00
2023-03-19T04:15:49.506Z,0.00
2023-03-19T04:16:49.588Z,0.00
2023-03-19T04:17:49.487Z,0.00
2023-03-19T04:18:49.540Z,0.00
2023-03-19T04:19:49.468Z,0.00
2023-03-19T04:20:49.498Z,0.00
2023-03-19T04:21:49.457Z,0.00
2023-03-19T04:22:49.429Z,0.00
2023-03-19T04:23:49.485Z,0.00
2023-03-19T04:24:49.431Z,0.00
2023-03-19T04:25:49.404Z,0.00
2023-03-19T04:26:49.424Z,0.00
2023-03-19T04:27:49.373Z,0.00
2023-03-19T04:28:49.372Z,0.00
2023-03-19T04:29:49.387Z,0.00
2023-03-19T04:30:49.386Z,0.00
2023-03-19T04:31:49.363Z,0.00
2023-03-19T04:32:49.398Z,0.00
2023-03-19T04:33:49.320Z,0.00
2023-03-19T04:34:49.307Z,0.00
2023-03-19T04:35:49.315Z,0.00
2023-03-19T04:36:50.343Z,0.00
2023-03-19T04:37:49.294Z,0.00
2023-03-19T04:38:49.263Z,0.00
2023-03-19T04:39:49.264Z,0.00
2023-03-19T04:40:49.243Z,0.00
2023-03-19T04:41:49.254Z,0.00
2023-03-19T04:42:49.227Z,0.00
2023-03-19T04:43:49.255Z,0.00
2023-03-19T04:44:49.266Z,0.00
2023-03-19T04:45:49.190Z,0.00
2023-03-19T04:46:49.222Z,0.00
2023-03-19T04:47:49.152Z,0.00
2023-03-19T04:48:49.147Z,0.00
2023-03-19T04:49:49.147Z,0.00
2023-03-19T04:50:49.131Z,0.00
2023-03-19T04:51:49.106Z,0.00
2023-03-19T04:52:49.164Z,0.00
2023-03-19T04:53:49.080Z,0.00
2023-03-19T04:54:49.492Z,0.00
2023-03-19T04:55:49.065Z,0.00
2023-03-19T04:56:49.064Z,0.00
2023-03-19T04:57:49.900Z,0.00
2023-03-19T04:58:49.050Z,0.00
2023-03-19T04:59:49.022Z,0.00
2023-03-19T05:00:49.000Z,0.00
2023-03-19T05:01:49.064Z,0.00
2023-03-19T05:02:49.108Z,0.00
2023-03-19T05:03:49.022Z,0.00
2023-03-19T05:04:48.992Z,0.00
2023-03-19T05:05:48.948Z,0.00
2023-03-19T05:06:49.023Z,0.00
2023-03-19T05:07:48.986Z,0.00
2023-03-19T05:08:48.925Z,0.00
2023-03-19T05:09:48.909Z,0.00
2023-03-19T05:10:48.899Z,0.00
2023-03-19T05:11:48.951Z,0.00
2023-03-19T05:12:48.884Z,0.00
2023-03-19T05:13:48.854Z,0.00
2023-03-19T05:14:48.843Z,0.00
2023-03-19T05:15:48.896Z,0.00
2023-03-19T05:16:49.790Z,0.00
2023-03-19T05:17:49.656Z,0.00
2023-03-19T05:18:48.846Z,0.00
2023-03-19T05:19:48.803Z,0.00
2023-03-19T05:20:48.812Z,0.00
2023-03-19T05:21:48.760Z,0.00
2023-03-19T05:22:48.763Z,0.00
2023-03-19T05:23:48.781Z,0.00
2023-03-19T05:24:48.733Z,4.00
2023-03-19T05:25:48.736Z,4.00
2023-03-19T05:26:48.749Z,4.00
2023-03-19T05:27:48.692Z,4.00
2023-03-19T05:28:48.768Z,4.00
2023-03-19T05:29:48.708Z,4.00
2023-03-19T05:30:48.774Z,4.00
2023-03-19T05:31:48.658Z,4.00
2023-03-19T05:32:48.723Z,4.00
2023-03-19T05:33:48.681Z,4.00
2023-03-19T05:34:48.735Z,8.00
2023-03-19T05:35:48.662Z,12.00
2023-03-19T05:36:48.637Z,12.00
2023-03-19T05:37:48.598Z,8.00
2023-03-19T05:38:48.622Z,12.00
2023-03-19T05:39:48.578Z,12.00
2023-03-19T05:40:48.598Z,16.00
2023-03-19T05:41:48.598Z,20.00
2023-03-19T05:42:48.591Z,24.00
2023-03-19T05:43:48.583Z,24.00
2023-03-19T05:44:48.527Z,32.00
2023-03-19T05:45:49.596Z,40.00
2023-03-19T05:46:48.631Z,44.00
2023-03-19T05:47:48.488Z,48.00
2023-03-19T05:48:48.469Z,56.00
2023-03-19T05:49:48.448Z,60.00
2023-03-19T05:50:48.460Z,68.00
2023-03-19T05:51:48.445Z,80.00
2023-03-19T05:52:48.443Z,84.00
2023-03-19T05:53:49.617Z,88.00
2023-03-19T05:54:48.394Z,96.00
2023-03-19T05:55:48.376Z,104.00
2023-03-19T05:56:48.371Z,120.00
2023-03-19T05:57:48.376Z,132.00
2023-03-19T05:58:49.618Z,132.00
2023-03-19T05:59:48.389Z,124.00
2023-03-19T06:00:48.325Z,100.00
2023-03-19T06:01:48.383Z,100.00
2023-03-19T06:02:48.410Z,120.00
2023-03-19T06:03:48.358Z,164.00
2023-03-19T06:04:48.286Z,180.00
2023-03-19T06:05:48.311Z,188.00
2023-03-19T06:06:48.249Z,204.00
2023-03-19T06:07:48.259Z,220.00
2023-03-19T06:08:48.714Z,220.00
2023-03-19T06:09:48.432Z,264.00
2023-03-19T06:10:48.230Z,256.00
2023-03-19T06:11:48.224Z,268.00
2023-03-19T06:12:48.192Z,332.00
2023-03-19T06:13:48.222Z,408.00
2023-03-19T06:14:48.201Z,476.00
2023-03-19T06:15:48.217Z,532.00
2023-03-19T06:16:48.351Z,524.00
2023-03-19T06:17:48.163Z,460.00
2023-03-19T06:18:48.133Z,452.00
2023-03-19T06:19:48.150Z,436.00
2023-03-19T06:20:48.112Z,384.00
2023-03-19T06:21:48.099Z,368.00
2023-03-19T06:22:48.634Z,396.00
2023-03-19T06:23:48.080Z,408.00
2023-03-19T06:24:48.057Z,372.00
2023-03-19T06:25:48.098Z,336.00
2023-03-19T06:26:48.034Z,292.00
2023-03-19T06:27:48.033Z,264.00
2023-03-19T06:28:48.015Z,272.00
2023-03-19T06:29:48.013Z,324.00
2023-03-19T06:30:48.007Z,340.00
2023-03-19T06:31:48.069Z,364.00
2023-03-19T06:32:47.985Z,392.00
2023-03-19T06:33:47.976Z,416.00
2023-03-19T06:34:48.976Z,420.00
2023-03-19T06:35:48.009Z,408.00
2023-03-19T06:36:47.962Z,376.00
2023-03-19T06:37:47.918Z,356.00
2023-03-19T06:38:47.916Z,332.00
2023-03-19T06:39:47.938Z,312.00
2023-03-19T06:40:47.910Z,340.00
2023-03-19T06:41:47.912Z,384.00
2023-03-19T06:42:47.861Z,448.00
2023-03-19T06:43:47.907Z,488.00
2023-03-19T06:44:47.863Z,428.00
2023-03-19T06:45:47.896Z,324.00
2023-03-19T06:46:47.867Z,300.00
2023-03-19T06:47:47.796Z,348.00
2023-03-19T06:48:47.796Z,372.00
2023-03-19T06:49:49.261Z,428.00
2023-03-19T06:50:49.264Z,632.00
2023-03-19T06:51:47.776Z,716.00
2023-03-19T06:52:47.809Z,736.00
2023-03-19T06:53:47.978Z,772.00
2023-03-19T06:54:47.829Z,716.00
2023-03-19T06:55:49.220Z,640.00
2023-03-19T06:56:48.494Z,600.00
2023-03-19T06:57:47.745Z,600.00
2023-03-19T06:58:47.913Z,704.00
2023-03-19T06:59:47.692Z,784.00
2023-03-19T07:00:47.833Z,768.00
2023-03-19T07:01:48.037Z,824.00
2023-03-19T07:02:48.416Z,932.00
2023-03-19T07:03:48.474Z,956.00
2023-03-19T07:04:47.630Z,1040.00
2023-03-19T07:05:48.892Z,1064.00
2023-03-19T07:06:47.770Z,1052.00
2023-03-19T07:07:47.602Z,892.00
2023-03-19T07:08:48.851Z,692.00
2023-03-19T07:09:47.907Z,688.00
2023-03-19T07:10:48.963Z,740.00
2023-03-19T07:11:47.572Z,696.00
2023-03-19T07:12:47.547Z,732.00
2023-03-19T07:13:47.544Z,876.00
2023-03-19T07:14:47.521Z,812.00
2023-03-19T07:15:47.508Z,656.00
2023-03-19T07:16:47.546Z,680.00
2023-03-19T07:17:47.533Z,884.00
2023-03-19T07:18:47.461Z,1108.00
2023-03-19T07:19:47.455Z,1148.00
2023-03-19T07:20:47.435Z,1044.00
2023-03-19T07:21:47.452Z,1072.00
2023-03-19T07:22:47.437Z,1036.00
2023-03-19T07:23:47.427Z,980.00
2023-03-19T07:24:47.411Z,1044.00
2023-03-19T07:25:47.385Z,1136.00
2023-03-19T07:26:47.378Z,1248.00
2023-03-19T07:27:47.352Z,1276.00
2023-03-19T07:28:47.324Z,1500.00
2023-03-19T07:29:47.358Z,1592.00
2023-03-19T07:30:47.304Z,1588.00
2023-03-19T07:31:47.386Z,1504.00
2023-03-19T07:32:47.365Z,1500.00
2023-03-19T07:33:47.289Z,1664.00
2023-03-19T07:34:47.270Z,1820.00
2023-03-19T07:35:47.330Z,1824.00
2023-03-19T07:36:47.293Z,1752.00
2023-03-19T07:37:47.256Z,1736.00
2023-03-19T07:38:47.241Z,1928.00
2023-03-19T07:39:47.216Z,2024.00
2023-03-19T07:41:01.032Z,1876.00
2023-03-19T07:41:48.234Z,1884.00
2023-03-19T07:42:47.230Z,2168.00
2023-03-19T07:43:47.581Z,2400.00
2023-03-19T07:44:47.168Z,2416.00
2023-03-19T07:45:47.240Z,2404.00
2023-03-19T07:46:48.250Z,2164.00
2023-03-19T07:47:49.271Z,2056.00
2023-03-19T07:48:47.174Z,2040.00
2023-03-19T07:49:47.162Z,2012.00
2023-03-19T07:50:47.110Z,1812.00
2023-03-19T07:51:48.607Z,1588.00
2023-03-19T07:52:47.185Z,1628.00
2023-03-19T07:53:48.020Z,1548.00
2023-03-19T07:54:47.073Z,1556.00
2023-03-19T07:55:47.108Z,1668.00
2023-03-19T07:56:47.019Z,1808.00
2023-03-19T07:57:48.490Z,2016.00
2023-03-19T07:58:47.019Z,2144.00
2023-03-19T07:59:47.033Z,1776.00
2023-03-19T08:00:47.029Z,1844.00
2023-03-19T08:01:47.007Z,1908.00
2023-03-19T08:02:47.921Z,1796.00
2023-03-19T08:03:46.962Z,1680.00
2023-03-19T08:04:47.388Z,1400.00
2023-03-19T08:05:46.925Z,1200.00
2023-03-19T08:06:46.946Z,1448.00
2023-03-19T08:07:46.950Z,1412.00
2023-03-19T08:08:46.895Z,1340.00
2023-03-19T08:09:48.475Z,1164.00
2023-03-19T08:10:48.341Z,908.00
2023-03-19T08:11:46.876Z,980.00
2023-03-19T08:12:46.861Z,1304.00
2023-03-19T08:13:46.896Z,1636.00
2023-03-19T08:14:46.825Z,1796.00
2023-03-19T08:15:47.143Z,1896.00
2023-03-19T08:16:46.824Z,1984.00
2023-03-19T08:17:46.803Z,1888.00
2023-03-19T08:18:46.801Z,2572.00
2023-03-19T08:19:46.831Z,2652.00
2023-03-19T08:20:46.763Z,2724.00
2023-03-19T08:21:47.257Z,2872.00
2023-03-19T08:22:46.816Z,2776.00
2023-03-19T08:23:47.186Z,2836.00
2023-03-19T08:24:46.714Z,2652.00
2023-03-19T08:25:46.748Z,2336.00
2023-03-19T08:26:46.692Z,1940.00
2023-03-19T08:27:47.447Z,1568.00
2023-03-19T08:28:47.469Z,1492.00
2023-03-19T08:29:46.677Z,1668.00
2023-03-19T08:30:46.699Z,1976.00
2023-03-19T08:31:47.453Z,1952.00
2023-03-19T08:32:46.710Z,1824.00
2023-03-19T08:33:46.616Z,2008.00
2023-03-19T08:34:49.390Z,2168.00
2023-03-19T08:35:46.660Z,2236.00
2023-03-19T08:36:46.566Z,2344.00
2023-03-19T08:37:46.602Z,2584.00
2023-03-19T08:38:46.552Z,2768.00
2023-03-19T08:39:46.549Z,2568.00
2023-03-19T08:40:46.564Z,2360.00
2023-03-19T08:41:46.530Z,2264.00
2023-03-19T08:42:46.512Z,2372.00
2023-03-19T08:43:47.970Z,2588.00
2023-03-19T08:44:46.622Z,2756.00
2023-03-19T08:45:46.477Z,2824.00
2023-03-19T08:46:46.489Z,2812.00
2023-03-19T08:47:46.434Z,2776.00
2023-03-19T08:48:46.471Z,2676.00
2023-03-19T08:49:46.446Z,2848.00
2023-03-19T08:50:46.403Z,2916.00
2023-03-19T08:51:46.417Z,2620.00
2023-03-19T08:52:46.429Z,2452.00
2023-03-19T08:53:47.857Z,2412.00
2023-03-19T08:54:46.399Z,2576.00
2023-03-19T08:55:46.362Z,2764.00
2023-03-19T08:56:46.323Z,2960.00
2023-03-19T08:57:46.327Z,3092.00
2023-03-19T08:58:47.138Z,3160.00
2023-03-19T08:59:46.367Z,3052.00
2023-03-19T09:00:46.388Z,2972.00
2023-03-19T09:01:46.769Z,2856.00
2023-03-19T09:02:46.280Z,2824.00
2023-03-19T09:03:47.370Z,3024.00
2023-03-19T09:04:46.308Z,3172.00
2023-03-19T09:05:46.242Z,3276.00
2023-03-19T09:06:46.285Z,3376.00
2023-03-19T09:07:46.268Z,3328.00
2023-03-19T09:08:46.256Z,3308.00
2023-03-19T09:09:46.192Z,3220.00
2023-03-19T09:10:46.188Z,3400.00
2023-03-19T09:11:46.194Z,3656.00
2023-03-19T09:12:48.410Z,4028.00
2023-03-19T09:13:46.179Z,4320.00
2023-03-19T09:14:46.278Z,4612.00
2023-03-19T09:15:46.175Z,4852.00
2023-03-19T09:16:46.116Z,4908.00
2023-03-19T09:17:46.133Z,4848.00
2023-03-19T09:18:46.123Z,4644.00
2023-03-19T09:19:46.134Z,4252.00
2023-03-19T09:20:46.062Z,3812.00
2023-03-19T09:21:46.081Z,3212.00
2023-03-19T09:22:46.046Z,2592.00
2023-03-19T09:23:47.511Z,2588.00
2023-03-19T09:24:46.021Z,3256.00
2023-03-19T09:25:46.063Z,3588.00
2023-03-19T09:26:46.020Z,3996.00
2023-03-19T09:27:46.029Z,4236.00
2023-03-19T09:28:46.016Z,4212.00
2023-03-19T09:29:45.990Z,4120.00
2023-03-19T09:30:45.954Z,4012.00
2023-03-19T09:31:47.995Z,3892.00
2023-03-19T09:32:47.453Z,3764.00
2023-03-19T09:33:45.932Z,3592.00
2023-03-19T09:34:45.916Z,3348.00
2023-03-19T09:35:45.917Z,3424.00
2023-03-19T09:36:45.944Z,3248.00
2023-03-19T09:37:45.912Z,2868.00
2023-03-19T09:38:45.876Z,2600.00
2023-03-19T09:39:45.892Z,2104.00
2023-03-19T09:40:45.890Z,1796.00
2023-03-19T09:41:45.841Z,1724.00
2023-03-19T09:42:45.839Z,1940.00
2023-03-19T09:43:45.821Z,2268.00
2023-03-19T09:44:45.858Z,1736.00
2023-03-19T09:45:45.808Z,1256.00
2023-03-19T09:46:45.818Z,1020.00
2023-03-19T09:47:45.784Z,904.00
2023-03-19T09:48:45.761Z,864.00
2023-03-19T09:49:45.770Z,768.00
2023-03-19T09:50:47.807Z,728.00
2023-03-19T09:51:45.874Z,956.00
2023-03-19T09:52:45.728Z,1228.00
2023-03-19T09:53:45.778Z,1660.00
2023-03-19T09:54:46.503Z,2548.00
2023-03-19T09:55:45.717Z,3692.00
2023-03-19T09:56:46.017Z,3592.00
2023-03-19T09:57:45.995Z,2760.00
2023-03-19T09:58:45.688Z,2160.00
2023-03-19T09:59:47.147Z,1932.00
2023-03-19T10:00:45.644Z,1940.00
2023-03-19T10:01:45.656Z,1964.00
2023-03-19T10:02:45.626Z,1836.00
2023-03-19T10:03:45.834Z,1660.00
2023-03-19T10:04:45.805Z,1684.00
2023-03-19T10:05:45.582Z,1936.00
2023-03-19T10:06:45.599Z,1864.00
2023-03-19T10:07:45.664Z,1876.00
2023-03-19T10:08:45.590Z,2100.00
2023-03-19T10:09:46.510Z,1988.00
2023-03-19T10:10:45.514Z,1696.00
2023-03-19T10:11:45.528Z,1532.00
2023-03-19T10:12:46.943Z,1596.00
2023-03-19T10:13:46.928Z,1828.00
2023-03-19T10:14:45.487Z,1976.00
2023-03-19T10:15:45.455Z,2020.00
2023-03-19T10:16:45.478Z,1972.00
2023-03-19T10:17:45.424Z,2068.00
2023-03-19T10:18:46.487Z,1940.00
2023-03-19T10:19:45.570Z,1428.00
2023-03-19T10:20:45.429Z,1120.00
2023-03-19T10:21:45.415Z,1096.00
2023-03-19T10:22:45.382Z,1208.00
2023-03-19T10:23:46.170Z,1264.00
2023-03-19T10:24:45.349Z,1296.00
2023-03-19T10:25:45.339Z,1360.00
2023-03-19T10:26:46.342Z,1388.00
2023-03-19T10:27:45.314Z,1428.00
2023-03-19T10:28:45.309Z,1420.00
2023-03-19T10:29:45.321Z,1396.00
2023-03-19T10:30:45.424Z,1444.00
2023-03-19T10:31:45.574Z,1556.00
2023-03-19T10:32:45.415Z,1668.00
2023-03-19T10:33:45.558Z,1856.00
2023-03-19T10:34:45.265Z,2064.00
2023-03-19T10:35:45.255Z,2140.00
2023-03-19T10:36:45.233Z,2036.00
2023-03-19T10:37:45.211Z,1820.00
2023-03-19T10:38:45.486Z,1696.00
2023-03-19T10:39:45.190Z,1612.00
2023-03-19T10:40:45.168Z,1584.00
2023-03-19T10:41:45.169Z,1552.00
2023-03-19T10:42:45.192Z,1756.00
2023-03-19T10:43:45.208Z,2064.00
2023-03-19T10:44:45.127Z,2160.00
2023-03-19T10:45:45.153Z,2208.00
2023-03-19T10:46:45.142Z,2116.00
2023-03-19T10:47:45.194Z,2048.00
2023-03-19T10:48:45.129Z,2356.00
2023-03-19T10:49:45.074Z,2696.00
2023-03-19T10:50:46.511Z,2928.00
2023-03-19T10:51:45.051Z,2620.00
2023-03-19T10:52:45.856Z,1956.00
2023-03-19T10:53:46.497Z,1536.00
2023-03-19T10:54:45.038Z,1400.00
2023-03-19T10:55:45.073Z,1652.00
2023-03-19T10:56:44.999Z,2000.00
2023-03-19T10:57:45.058Z,2120.00
2023-03-19T10:58:45.005Z,1976.00
2023-03-19T10:59:44.944Z,1764.00
2023-03-19T11:00:45.074Z,1876.00
2023-03-19T11:01:44.963Z,2276.00
2023-03-19T11:02:44.928Z,2600.00
2023-03-19T11:03:44.949Z,2724.00
2023-03-19T11:04:44.946Z,2872.00
2023-03-19T11:05:45.002Z,2932.00
2023-03-19T11:06:44.915Z,3008.00
2023-03-19T11:07:44.946Z,3000.00
2023-03-19T11:08:44.866Z,3072.00
2023-03-19T11:09:44.877Z,3148.00
2023-03-19T11:10:44.847Z,3284.00
2023-03-19T11:11:44.804Z,3600.00
2023-03-19T11:12:44.836Z,4060.00
2023-03-19T11:13:45.812Z,4676.00
2023-03-19T11:14:44.787Z,5300.00
2023-03-19T11:15:44.839Z,5844.00
2023-03-19T11:16:44.799Z,6068.00
2023-03-19T11:17:44.779Z,6276.00
2023-03-19T11:18:45.530Z,6100.00
2023-03-19T11:19:44.738Z,5732.00
2023-03-19T11:20:44.726Z,5676.00
2023-03-19T11:21:44.715Z,5152.00
2023-03-19T11:22:44.720Z,4772.00
2023-03-19T11:23:45.740Z,4752.00
2023-03-19T11:24:44.682Z,4852.00
2023-03-19T11:25:44.714Z,5040.00
2023-03-19T11:26:44.665Z,4600.00
2023-03-19T11:27:44.661Z,4168.00
2023-03-19T11:28:44.699Z,4144.00
2023-03-19T11:29:44.599Z,4384.00
2023-03-19T11:30:44.606Z,4008.00
2023-03-19T11:31:44.662Z,4384.00
2023-03-19T11:32:44.725Z,5120.00
2023-03-19T11:33:45.553Z,5740.00
2023-03-19T11:34:44.600Z,6736.00
2023-03-19T11:35:44.621Z,8296.00
2023-03-19T11:36:44.542Z,9016.00
2023-03-19T11:37:44.526Z,9212.00
2023-03-19T11:38:44.536Z,9016.00
2023-03-19T11:39:44.544Z,8944.00
2023-03-19T11:40:44.505Z,7948.00
2023-03-19T11:41:44.511Z,6708.00
2023-03-19T11:42:44.598Z,6024.00
2023-03-19T11:43:44.474Z,5516.00
2023-03-19T11:44:44.466Z,4860.00
2023-03-19T11:45:44.562Z,4200.00
2023-03-19T11:46:44.443Z,4132.00
2023-03-19T11:47:44.427Z,3964.00
2023-03-19T11:48:44.471Z,4052.00
2023-03-19T11:49:44.396Z,4144.00
2023-03-19T11:50:45.972Z,3672.00
2023-03-19T11:51:44.369Z,3532.00
2023-03-19T11:52:44.357Z,3308.00
2023-03-19T11:53:44.351Z,3284.00
2023-03-19T11:54:44.365Z,3040.00
2023-03-19T11:55:44.351Z,2944.00
2023-03-19T11:56:44.365Z,2972.00
2023-03-19T11:57:44.307Z,2884.00
2023-03-19T11:58:44.287Z,2728.00
2023-03-19T11:59:45.307Z,2620.00
2023-03-19T12:00:44.255Z,2528.00
2023-03-19T12:01:44.257Z,2480.00
2023-03-19T12:02:45.258Z,2384.00
2023-03-19T12:03:44.280Z,2312.00
2023-03-19T12:04:44.212Z,2260.00
2023-03-19T12:05:44.223Z,2204.00
2023-03-19T12:06:44.347Z,2232.00
2023-03-19T12:07:44.228Z,2320.00
2023-03-19T12:08:44.206Z,2500.00
2023-03-19T12:09:44.177Z,2792.00
2023-03-19T12:10:44.205Z,3300.00
2023-03-19T12:11:44.180Z,4104.00
2023-03-19T12:12:44.165Z,5524.00
2023-03-19T12:13:44.144Z,7572.00
2023-03-19T12:14:44.302Z,7756.00
2023-03-19T12:15:44.217Z,8052.00
2023-03-19T12:16:46.383Z,8104.00
2023-03-19T12:17:44.078Z,8148.00
2023-03-19T12:18:45.098Z,7704.00
2023-03-19T12:19:45.022Z,6508.00
2023-03-19T12:20:44.064Z,5556.00
2023-03-19T12:21:44.078Z,5012.00
2023-03-19T12:22:44.013Z,5124.00
2023-03-19T12:23:44.027Z,6128.00
2023-03-19T12:24:44.041Z,7432.00
2023-03-19T12:25:44.031Z,8260.00
2023-03-19T12:26:43.996Z,8356.00
2023-03-19T12:27:43.992Z,8164.00
2023-03-19T12:28:43.960Z,7456.00
2023-03-19T12:29:43.946Z,7092.00
2023-03-19T12:30:44.015Z,6412.00
2023-03-19T12:31:43.962Z,6700.00
2023-03-19T12:32:44.656Z,6492.00
2023-03-19T12:33:43.882Z,6740.00
2023-03-19T12:34:43.887Z,6828.00
2023-03-19T12:35:43.942Z,6628.00
2023-03-19T12:36:43.884Z,6188.00
2023-03-19T12:37:43.896Z,5516.00
2023-03-19T12:38:43.860Z,4808.00
2023-03-19T12:39:43.896Z,4376.00
2023-03-19T12:40:44.841Z,4780.00